sensor_id;sensor_type;location;lat;lon;timestamp;pressure;altitude;pressure_sealevel;temperature;humidity
48053;BME280;33824;51.600;5.718;2023-02-10T00:01:17;103386.56;;;2.75;95.63
48053;BME280;33824;51.600;5.718;2023-02-10T00:03:43;103390.06;;;2.76;94.51
48053;BME280;33824;51.600;5.718;2023-02-10T00:06:11;103395.38;;;2.74;93.33
48053;BME280;33824;51.600;5.718;2023-02-10T00:08:37;103401.69;;;2.70;92.67
48053;BME280;33824;51.600;5.718;2023-02-10T00:11:05;103399.06;;;2.70;92.80
48053;BME280;33824;51.600;5.718;2023-02-10T00:13:32;103392.03;;;2.71;93.49
48053;BME280;33824;51.600;5.718;2023-02-10T00:15:59;103399.06;;;2.70;95.01
48053;BME280;33824;51.600;5.718;2023-02-10T00:18:25;103400.78;;;2.71;95.05
48053;BME280;33824;51.600;5.718;2023-02-10T00:20:50;103411.41;;;2.70;95.94
48053;BME280;33824;51.600;5.718;2023-02-10T00:23:16;103410.66;;;2.66;94.01
48053;BME280;33824;51.600;5.718;2023-02-10T00:25:42;103416.91;;;2.64;94.65
48053;BME280;33824;51.600;5.718;2023-02-10T00:28:08;103407.34;;;2.61;95.86
48053;BME280;33824;51.600;5.718;2023-02-10T00:30:33;103411.75;;;2.61;95.18
48053;BME280;33824;51.600;5.718;2023-02-10T00:32:59;103416.13;;;2.62;94.46
48053;BME280;33824;51.600;5.718;2023-02-10T00:35:25;103412.84;;;2.55;95.55
48053;BME280;33824;51.600;5.718;2023-02-10T00:37:50;103416.41;;;2.54;95.49
48053;BME280;33824;51.600;5.718;2023-02-10T00:40:16;103410.34;;;2.52;96.76
48053;BME280;33824;51.600;5.718;2023-02-10T00:42:42;103412.91;;;2.54;96.18
48053;BME280;33824;51.600;5.718;2023-02-10T00:45:08;103422.63;;;2.52;94.34
48053;BME280;33824;51.600;5.718;2023-02-10T00:47:34;103426.25;;;2.49;93.63
48053;BME280;33824;51.600;5.718;2023-02-10T00:49:59;103428.19;;;2.44;93.46
48053;BME280;33824;51.600;5.718;2023-02-10T00:52:25;103424.69;;;2.43;93.63
48053;BME280;33824;51.600;5.718;2023-02-10T00:54:50;103418.53;;;2.45;95.75
48053;BME280;33824;51.600;5.718;2023-02-10T00:57:16;103420.22;;;2.47;95.00
48053;BME280;33824;51.600;5.718;2023-02-10T00:59:41;103418.47;;;2.46;95.62
48053;BME280;33824;51.600;5.718;2023-02-10T01:02:07;103420.25;;;2.46;95.49
48053;BME280;33824;51.600;5.718;2023-02-10T01:04:33;103424.63;;;2.47;95.13
48053;BME280;33824;51.600;5.718;2023-02-10T01:06:59;103427.47;;;2.40;96.65
48053;BME280;33824;51.600;5.718;2023-02-10T01:09:25;103426.59;;;2.40;96.75
48053;BME280;33824;51.600;5.718;2023-02-10T01:11:50;103427.59;;;2.37;96.26
48053;BME280;33824;51.600;5.718;2023-02-10T01:14:16;103425.00;;;2.36;97.29
48053;BME280;33824;51.600;5.718;2023-02-10T01:16:42;103432.97;;;2.34;96.06
48053;BME280;33824;51.600;5.718;2023-02-10T01:19:08;103424.34;;;2.31;96.23
48053;BME280;33824;51.600;5.718;2023-02-10T01:21:34;103440.25;;;2.28;96.63
48053;BME280;33824;51.600;5.718;2023-02-10T01:24:02;103434.91;;;2.29;95.68
48053;BME280;33824;51.600;5.718;2023-02-10T01:26:28;103438.41;;;2.30;95.13
48053;BME280;33824;51.600;5.718;2023-02-10T01:28:53;103437.63;;;2.28;94.75
48053;BME280;33824;51.600;5.718;2023-02-10T01:31:20;103439.44;;;2.26;94.45
48053;BME280;33824;51.600;5.718;2023-02-10T01:33:46;103446.44;;;2.27;93.69
48053;BME280;33824;51.600;5.718;2023-02-10T01:36:17;103451.72;;;2.25;93.53
48053;BME280;33824;51.600;5.718;2023-02-10T01:38:43;103453.47;;;2.26;93.92
48053;BME280;33824;51.600;5.718;2023-02-10T01:41:11;103457.00;;;2.25;93.68
48053;BME280;33824;51.600;5.718;2023-02-10T01:43:59;103450.38;;;2.15;94.76
48053;BME280;33824;51.600;5.718;2023-02-10T01:46:30;103448.44;;;2.20;95.59
48053;BME280;33824;51.600;5.718;2023-02-10T01:49:00;103443.09;;;2.22;95.36
48053;BME280;33824;51.600;5.718;2023-02-10T01:51:36;103452.13;;;2.15;96.18
48053;BME280;33824;51.600;5.718;2023-02-10T01:54:03;103450.25;;;2.18;96.86
48053;BME280;33824;51.600;5.718;2023-02-10T01:56:29;103440.72;;;2.16;97.17
48053;BME280;33824;51.600;5.718;2023-02-10T01:58:55;103444.38;;;2.12;97.44
48053;BME280;33824;51.600;5.718;2023-02-10T02:01:21;103435.56;;;2.13;95.78
48053;BME280;33824;51.600;5.718;2023-02-10T02:03:47;103431.19;;;2.12;95.65
48053;BME280;33824;51.600;5.718;2023-02-10T02:06:13;103427.88;;;2.07;94.75
48053;BME280;33824;51.600;5.718;2023-02-10T02:08:38;103426.34;;;2.01;94.65
48053;BME280;33824;51.600;5.718;2023-02-10T02:13:58;103429.63;;;1.83;94.20
48053;BME280;33824;51.600;5.718;2023-02-10T02:25:20;103430.16;;;1.68;95.02
48053;BME280;33824;51.600;5.718;2023-02-10T02:36:40;103444.66;;;1.79;95.06
48053;BME280;33824;51.600;5.718;2023-02-10T02:39:07;103441.88;;;1.84;96.14
48053;BME280;33824;51.600;5.718;2023-02-10T02:41:33;103433.84;;;1.87;95.65
48053;BME280;33824;51.600;5.718;2023-02-10T02:44:01;103433.78;;;1.90;95.64
48053;BME280;33824;51.600;5.718;2023-02-10T02:46:53;103440.13;;;1.83;94.94
48053;BME280;33824;51.600;5.718;2023-02-10T02:50:01;103433.19;;;1.82;94.79
48053;BME280;33824;51.600;5.718;2023-02-10T02:55:28;103429.69;;;1.81;95.30
48053;BME280;33824;51.600;5.718;2023-02-10T02:58:04;103428.66;;;1.85;95.55
48053;BME280;33824;51.600;5.718;2023-02-10T03:00:35;103432.09;;;1.87;95.54
48053;BME280;33824;51.600;5.718;2023-02-10T03:03:01;103428.56;;;1.88;95.44
48053;BME280;33824;51.600;5.718;2023-02-10T03:05:29;103431.28;;;1.85;95.14
48053;BME280;33824;51.600;5.718;2023-02-10T03:07:56;103437.44;;;1.86;94.95
48053;BME280;33824;51.600;5.718;2023-02-10T03:10:22;103444.44;;;1.85;95.92
48053;BME280;33824;51.600;5.718;2023-02-10T03:12:50;103442.75;;;1.83;96.43
48053;BME280;33824;51.600;5.718;2023-02-10T03:15:16;103441.88;;;1.84;96.72
48053;BME280;33824;51.600;5.718;2023-02-10T03:17:42;103455.09;;;1.82;96.49
48053;BME280;33824;51.600;5.718;2023-02-10T03:20:08;103461.38;;;1.78;97.36
48053;BME280;33824;51.600;5.718;2023-02-10T03:22:34;103462.16;;;1.80;96.35
48053;BME280;33824;51.600;5.718;2023-02-10T03:24:59;103474.53;;;1.78;96.18
48053;BME280;33824;51.600;5.718;2023-02-10T03:27:25;103467.66;;;1.74;96.55
48053;BME280;33824;51.600;5.718;2023-02-10T03:29:51;103467.66;;;1.74;97.64
48053;BME280;33824;51.600;5.718;2023-02-10T03:32:18;103462.44;;;1.73;97.82
48053;BME280;33824;51.600;5.718;2023-02-10T03:34:44;103468.59;;;1.72;96.94
48053;BME280;33824;51.600;5.718;2023-02-10T03:37:10;103474.84;;;1.69;96.39
48053;BME280;33824;51.600;5.718;2023-02-10T03:39:36;103481.94;;;1.67;95.59
48053;BME280;33824;51.600;5.718;2023-02-10T03:42:02;103477.63;;;1.65;95.30
48053;BME280;33824;51.600;5.718;2023-02-10T03:44:27;103476.81;;;1.63;95.30
48053;BME280;33824;51.600;5.718;2023-02-10T03:46:53;103476.94;;;1.60;94.92
48053;BME280;33824;51.600;5.718;2023-02-10T03:49:19;103475.34;;;1.54;94.98
48053;BME280;33824;51.600;5.718;2023-02-10T03:51:44;103474.59;;;1.51;94.41
48053;BME280;33824;51.600;5.718;2023-02-10T03:54:09;103479.91;;;1.49;94.99
48053;BME280;33824;51.600;5.718;2023-02-10T03:56:35;103480.88;;;1.47;94.18
48053;BME280;33824;51.600;5.718;2023-02-10T03:59:02;103476.63;;;1.42;94.31
48053;BME280;33824;51.600;5.718;2023-02-10T04:01:28;103478.38;;;1.42;94.56
48053;BME280;33824;51.600;5.718;2023-02-10T04:03:54;103476.59;;;1.44;95.34
48053;BME280;33824;51.600;5.718;2023-02-10T04:06:19;103478.28;;;1.45;94.95
48053;BME280;33824;51.600;5.718;2023-02-10T04:08:46;103476.66;;;1.41;95.39
48053;BME280;33824;51.600;5.718;2023-02-10T04:11:12;103476.72;;;1.39;94.86
48053;BME280;33824;51.600;5.718;2023-02-10T04:13:38;103474.16;;;1.38;94.40
48053;BME280;33824;51.600;5.718;2023-02-10T04:16:07;103484.75;;;1.35;95.29
48053;BME280;33824;51.600;5.718;2023-02-10T04:18:33;103467.28;;;1.34;95.14
48053;BME280;33824;51.600;5.718;2023-02-10T04:21:01;103467.28;;;1.34;95.87
48053;BME280;33824;51.600;5.718;2023-02-10T04:23:28;103463.75;;;1.35;97.03
48053;BME280;33824;51.600;5.718;2023-02-10T04:25:53;103470.75;;;1.34;97.57
48053;BME280;33824;51.600;5.718;2023-02-10T04:28:19;103470.72;;;1.36;96.96
48053;BME280;33824;51.600;5.718;2023-02-10T04:30:45;103472.44;;;1.37;98.01
48053;BME280;33824;51.600;5.718;2023-02-10T04:33:10;103471.47;;;1.39;98.36
48053;BME280;33824;51.600;5.718;2023-02-10T04:35:36;103472.28;;;1.41;97.81
48053;BME280;33824;51.600;5.718;2023-02-10T04:38:02;103476.72;;;1.39;98.53
48053;BME280;33824;51.600;5.718;2023-02-10T04:40:30;103475.00;;;1.38;99.81
48053;BME280;33824;51.600;5.718;2023-02-10T04:42:56;103469.63;;;1.41;99.65
48053;BME280;33824;51.600;5.718;2023-02-10T04:45:21;103470.63;;;1.39;99.85
48053;BME280;33824;51.600;5.718;2023-02-10T04:47:47;103466.22;;;1.39;98.47
48053;BME280;33824;51.600;5.718;2023-02-10T04:50:12;103467.09;;;1.40;98.07
48053;BME280;33824;51.600;5.718;2023-02-10T04:52:38;103468.88;;;1.38;97.95
48053;BME280;33824;51.600;5.718;2023-02-10T04:55:03;103474.25;;;1.35;98.63
48053;BME280;33824;51.600;5.718;2023-02-10T04:57:29;103473.28;;;1.37;98.49
48053;BME280;33824;51.600;5.718;2023-02-10T04:59:54;103470.72;;;1.36;97.74
48053;BME280;33824;51.600;5.718;2023-02-10T05:02:20;103480.38;;;1.35;97.54
48053;BME280;33824;51.600;5.718;2023-02-10T05:04:45;103488.28;;;1.34;96.53
48053;BME280;33824;51.600;5.718;2023-02-10T05:07:11;103486.53;;;1.34;96.96
48053;BME280;33824;51.600;5.718;2023-02-10T05:09:37;103478.38;;;1.42;96.50
48053;BME280;33824;51.600;5.718;2023-02-10T05:12:02;103482.78;;;1.41;98.53
48053;BME280;33824;51.600;5.718;2023-02-10T05:14:28;103487.84;;;1.48;100.00
48053;BME280;33824;51.600;5.718;2023-02-10T05:16:54;103494.66;;;1.53;100.00
48053;BME280;33824;51.600;5.718;2023-02-10T05:19:19;103499.78;;;1.58;100.00
48053;BME280;33824;51.600;5.718;2023-02-10T05:21:45;103507.63;;;1.59;100.00
48053;BME280;33824;51.600;5.718;2023-02-10T05:24:10;103500.50;;;1.63;100.00
48053;BME280;33824;51.600;5.718;2023-02-10T05:26:36;103505.50;;;1.70;100.00
48053;BME280;33824;51.600;5.718;2023-02-10T05:29:01;103503.50;;;1.77;100.00
48053;BME280;33824;51.600;5.718;2023-02-10T05:31:27;103489.22;;;1.84;100.00
48053;BME280;33824;51.600;5.718;2023-02-10T05:33:52;103502.38;;;1.84;100.00
48053;BME280;33824;51.600;5.718;2023-02-10T05:36:19;103497.06;;;1.85;100.00
48053;BME280;33824;51.600;5.718;2023-02-10T05:38:46;103502.94;;;1.93;100.00
48053;BME280;33824;51.600;5.718;2023-02-10T05:41:31;103499.31;;;1.96;100.00
48053;BME280;33824;51.600;5.718;2023-02-10T05:43:57;103498.59;;;1.91;100.00
48053;BME280;33824;51.600;5.718;2023-02-10T05:46:22;103501.03;;;1.97;100.00
48053;BME280;33824;51.600;5.718;2023-02-10T05:48:48;103506.31;;;1.97;100.00
48053;BME280;33824;51.600;5.718;2023-02-10T05:51:14;103513.44;;;1.93;100.00
48053;BME280;33824;51.600;5.718;2023-02-10T05:53:39;103503.78;;;1.94;100.00
48053;BME280;33824;51.600;5.718;2023-02-10T05:56:05;103504.63;;;1.94;100.00
48053;BME280;33824;51.600;5.718;2023-02-10T05:58:31;103499.94;;;2.03;100.00
48053;BME280;33824;51.600;5.718;2023-02-10T06:01:05;103508.00;;;1.98;100.00
48053;BME280;33824;51.600;5.718;2023-02-10T06:03:31;103507.53;;;2.12;100.00
48053;BME280;33824;51.600;5.718;2023-02-10T06:05:57;103499.47;;;2.16;100.00
48053;BME280;33824;51.600;5.718;2023-02-10T06:08:25;103497.22;;;2.29;100.00
48053;BME280;33824;51.600;5.718;2023-02-10T06:10:52;103504.97;;;2.33;100.00
48053;BME280;33824;51.600;5.718;2023-02-10T06:13:17;103499.66;;;2.35;100.00
48053;BME280;33824;51.600;5.718;2023-02-10T06:15:43;103497.59;;;2.43;100.00
48053;BME280;33824;51.600;5.718;2023-02-10T06:18:08;103497.41;;;2.48;100.00
48053;BME280;33824;51.600;5.718;2023-02-10T06:20:34;103498.06;;;2.54;100.00
48053;BME280;33824;51.600;5.718;2023-02-10T06:22:59;103503.16;;;2.59;100.00
48053;BME280;33824;51.600;5.718;2023-02-10T06:25:25;103501.59;;;2.53;100.00
48053;BME280;33824;51.600;5.718;2023-02-10T06:27:50;103498.72;;;2.59;100.00
48053;BME280;33824;51.600;5.718;2023-02-10T06:30:16;103494.19;;;2.63;100.00
48053;BME280;33824;51.600;5.718;2023-02-10T06:32:42;103492.38;;;2.65;100.00
48053;BME280;33824;51.600;5.718;2023-02-10T06:35:09;103488.63;;;2.70;100.00
48053;BME280;33824;51.600;5.718;2023-02-10T06:37:35;103495.75;;;2.68;100.00
48053;BME280;33824;51.600;5.718;2023-02-10T06:40:03;103493.69;;;2.76;100.00
48053;BME280;33824;51.600;5.718;2023-02-10T06:42:29;103490.34;;;2.71;100.00
48053;BME280;33824;51.600;5.718;2023-02-10T06:44:54;103496.53;;;2.70;100.00
48053;BME280;33824;51.600;5.718;2023-02-10T06:47:20;103489.50;;;2.71;100.00
48053;BME280;33824;51.600;5.718;2023-02-10T06:49:45;103503.19;;;2.80;100.00
48053;BME280;33824;51.600;5.718;2023-02-10T06:52:11;103489.03;;;2.83;100.00
48053;BME280;33824;51.600;5.718;2023-02-10T06:54:36;103492.81;;;2.76;100.00
48053;BME280;33824;51.600;5.718;2023-02-10T06:57:05;103482.97;;;2.81;100.00
48053;BME280;33824;51.600;5.718;2023-02-10T06:59:34;103494.59;;;2.75;100.00
48053;BME280;33824;51.600;5.718;2023-02-10T07:01:59;103502.28;;;2.81;100.00
48053;BME280;33824;51.600;5.718;2023-02-10T07:04:28;103505.41;;;2.91;100.00
48053;BME280;33824;51.600;5.718;2023-02-10T07:06:55;103510.53;;;2.94;100.00
48053;BME280;33824;51.600;5.718;2023-02-10T07:09:21;103523.56;;;2.99;100.00
48053;BME280;33824;51.600;5.718;2023-02-10T07:11:47;103508.59;;;2.99;100.00
48053;BME280;33824;51.600;5.718;2023-02-10T07:14:13;103520.06;;;2.98;100.00
48053;BME280;33824;51.600;5.718;2023-02-10T07:16:38;103519.31;;;2.95;100.00
48053;BME280;33824;51.600;5.718;2023-02-10T07:19:04;103521.81;;;2.98;100.00
48053;BME280;33824;51.600;5.718;2023-02-10T07:21:29;103521.81;;;2.98;100.00
48053;BME280;33824;51.600;5.718;2023-02-10T07:23:55;103531.19;;;3.05;100.00
48053;BME280;33824;51.600;5.718;2023-02-10T07:26:20;103531.28;;;3.03;100.00
48053;BME280;33824;51.600;5.718;2023-02-10T07:28:46;103537.72;;;2.96;100.00
48053;BME280;33824;51.600;5.718;2023-02-10T07:31:12;103533.19;;;3.00;100.00
48053;BME280;33824;51.600;5.718;2023-02-10T07:33:37;103534.56;;;3.08;100.00
48053;BME280;33824;51.600;5.718;2023-02-10T07:36:05;103536.06;;;3.15;100.00
48053;BME280;33824;51.600;5.718;2023-02-10T07:38:31;103528.09;;;3.17;100.00
48053;BME280;33824;51.600;5.718;2023-02-10T07:40:58;103529.63;;;3.22;100.00
48053;BME280;33824;51.600;5.718;2023-02-10T07:43:24;103531.09;;;3.29;100.00
48053;BME280;33824;51.600;5.718;2023-02-10T07:45:49;103532.38;;;3.41;100.00
48053;BME280;33824;51.600;5.718;2023-02-10T07:48:18;103532.69;;;3.33;100.00
48053;BME280;33824;51.600;5.718;2023-02-10T07:50:45;103538.53;;;3.42;100.00
48053;BME280;33824;51.600;5.718;2023-02-10T07:53:11;103534.94;;;3.43;100.00
48053;BME280;33824;51.600;5.718;2023-02-10T07:55:37;103538.25;;;3.48;100.00
48053;BME280;33824;51.600;5.718;2023-02-10T07:58:04;103539.44;;;3.41;100.00
48053;BME280;33824;51.600;5.718;2023-02-10T08:00:29;103543.31;;;3.54;100.00
48053;BME280;33824;51.600;5.718;2023-02-10T08:02:55;103537.91;;;3.57;100.00
48053;BME280;33824;51.600;5.718;2023-02-10T08:05:20;103550.44;;;3.50;100.00
48053;BME280;33824;51.600;5.718;2023-02-10T08:07:47;103544.25;;;3.51;100.00
48053;BME280;33824;51.600;5.718;2023-02-10T08:10:12;103541.44;;;3.56;100.00
48053;BME280;33824;51.600;5.718;2023-02-10T08:12:38;103539.34;;;3.64;100.00
48053;BME280;33824;51.600;5.718;2023-02-10T08:15:05;103547.28;;;3.64;100.00
48053;BME280;33824;51.600;5.718;2023-02-10T08:17:31;103557.38;;;3.74;100.00
48053;BME280;33824;51.600;5.718;2023-02-10T08:19:57;103555.72;;;3.72;100.00
48053;BME280;33824;51.600;5.718;2023-02-10T08:22:22;103563.00;;;3.65;100.00
48053;BME280;33824;51.600;5.718;2023-02-10T08:24:48;103570.16;;;3.63;100.00
48053;BME280;33824;51.600;5.718;2023-02-10T08:27:13;103565.56;;;3.68;100.00
48053;BME280;33824;51.600;5.718;2023-02-10T08:29:39;103571.09;;;3.82;100.00
48053;BME280;33824;51.600;5.718;2023-02-10T08:32:05;103566.59;;;3.84;100.00
48053;BME280;33824;51.600;5.718;2023-02-10T08:34:30;103565.44;;;3.92;100.00
48053;BME280;33824;51.600;5.718;2023-02-10T08:36:56;103573.28;;;3.93;100.00
48053;BME280;33824;51.600;5.718;2023-02-10T08:39:22;103584.56;;;3.97;100.00
48053;BME280;33824;51.600;5.718;2023-02-10T08:41:47;103587.94;;;4.00;100.00
48053;BME280;33824;51.600;5.718;2023-02-10T08:44:13;103582.34;;;4.08;100.00
48053;BME280;33824;51.600;5.718;2023-02-10T08:46:39;103589.41;;;4.07;100.00
48053;BME280;33824;51.600;5.718;2023-02-10T08:49:05;103599.84;;;4.10;100.00
48053;BME280;33824;51.600;5.718;2023-02-10T08:51:30;103596.97;;;4.15;100.00
48053;BME280;33824;51.600;5.718;2023-02-10T08:54:01;103593.28;;;4.19;100.00
48053;BME280;33824;51.600;5.718;2023-02-10T08:56:28;103568.03;;;4.13;100.00
48053;BME280;33824;51.600;5.718;2023-02-10T08:58:53;103563.81;;;4.29;100.00
48053;BME280;33824;51.600;5.718;2023-02-10T09:01:23;103574.41;;;4.28;100.00
48053;BME280;33824;51.600;5.718;2023-02-10T09:03:51;103570.13;;;4.25;100.00
48053;BME280;33824;51.600;5.718;2023-02-10T09:06:34;103562.78;;;4.32;100.00
48053;BME280;33824;51.600;5.718;2023-02-10T09:09:12;103567.06;;;4.34;100.00
48053;BME280;33824;51.600;5.718;2023-02-10T09:11:39;103571.09;;;4.43;100.00
48053;BME280;33824;51.600;5.718;2023-02-10T09:14:04;103564.97;;;4.61;100.00
48053;BME280;33824;51.600;5.718;2023-02-10T09:16:30;103567.53;;;4.83;100.00
48053;BME280;33824;51.600;5.718;2023-02-10T09:18:56;103565.25;;;4.94;100.00
48053;BME280;33824;51.600;5.718;2023-02-10T09:21:22;103571.00;;;5.02;100.00
48053;BME280;33824;51.600;5.718;2023-02-10T09:23:49;103576.59;;;5.15;100.00
48053;BME280;33824;51.600;5.718;2023-02-10T09:26:15;103563.09;;;5.21;100.00
48053;BME280;33824;51.600;5.718;2023-02-10T09:28:40;103567.47;;;5.39;100.00
48053;BME280;33824;51.600;5.718;2023-02-10T09:31:08;103572.00;;;5.18;99.93
48053;BME280;33824;51.600;5.718;2023-02-10T09:33:34;103574.03;;;5.13;100.00
48053;BME280;33824;51.600;5.718;2023-02-10T09:36:04;103579.88;;;5.20;100.00
48053;BME280;33824;51.600;5.718;2023-02-10T09:38:30;103575.34;;;5.22;100.00
48053;BME280;33824;51.600;5.718;2023-02-10T09:41:15;103577.28;;;5.18;99.50
48053;BME280;33824;51.600;5.718;2023-02-10T09:43:56;103577.25;;;5.37;100.00
48053;BME280;33824;51.600;5.718;2023-02-10T09:49:54;103578.47;;;5.13;99.06
48053;BME280;33824;51.600;5.718;2023-02-10T09:55:18;103570.94;;;5.58;98.62
48053;BME280;33824;51.600;5.718;2023-02-10T09:57:49;103566.50;;;5.76;99.10
48053;BME280;33824;51.600;5.718;2023-02-10T10:00:26;103560.72;;;5.87;97.79
48053;BME280;33824;51.600;5.718;2023-02-10T10:02:54;103576.69;;;6.02;98.05
48053;BME280;33824;51.600;5.718;2023-02-10T10:05:40;103575.13;;;6.15;98.17
48053;BME280;33824;51.600;5.718;2023-02-10T10:08:18;103576.13;;;6.30;96.36
48053;BME280;33824;51.600;5.718;2023-02-10T10:10:47;103565.03;;;6.39;97.56
48053;BME280;33824;51.600;5.718;2023-02-10T10:13:15;103574.28;;;6.48;97.22
48053;BME280;33824;51.600;5.718;2023-02-10T10:18:48;103578.91;;;6.44;96.50
48053;BME280;33824;51.600;5.718;2023-02-10T10:24:41;103588.00;;;6.56;94.28
48053;BME280;33824;51.600;5.718;2023-02-10T10:29:52;103584.34;;;6.74;94.52
48053;BME280;33824;51.600;5.718;2023-02-10T10:32:28;103570.25;;;6.89;94.52
48053;BME280;33824;51.600;5.718;2023-02-10T10:34:58;103567.63;;;7.20;95.11
48053;BME280;33824;51.600;5.718;2023-02-10T10:37:26;103560.09;;;7.13;93.13
48053;BME280;33824;51.600;5.718;2023-02-10T10:39:56;103568.72;;;7.32;93.34
48053;BME280;33824;51.600;5.718;2023-02-10T10:45:05;103569.59;;;7.17;90.26
48053;BME280;33824;51.600;5.718;2023-02-10T10:47:48;103582.19;;;7.29;88.68
48053;BME280;33824;51.600;5.718;2023-02-10T10:50:19;103569.09;;;7.42;89.81
48053;BME280;33824;51.600;5.718;2023-02-10T10:52:45;103568.53;;;7.51;88.96
48053;BME280;33824;51.600;5.718;2023-02-10T10:55:24;103556.53;;;7.59;87.80
48053;BME280;33824;51.600;5.718;2023-02-10T10:57:52;103549.00;;;7.67;87.82
48053;BME280;33824;51.600;5.718;2023-02-10T11:00:21;103556.16;;;7.65;85.70
48053;BME280;33824;51.600;5.718;2023-02-10T11:02:59;103553.97;;;7.58;84.16
48053;BME280;33824;51.600;5.718;2023-02-10T11:05:28;103560.28;;;7.71;85.00
48053;BME280;33824;51.600;5.718;2023-02-10T11:07:55;103548.19;;;7.95;85.63
48053;BME280;33824;51.600;5.718;2023-02-10T11:10:49;103552.31;;;8.15;85.50
48053;BME280;33824;51.600;5.718;2023-02-10T11:13:25;103551.22;;;8.33;83.89
48053;BME280;33824;51.600;5.718;2023-02-10T11:16:00;103540.09;;;8.27;81.65
48053;BME280;33824;51.600;5.718;2023-02-10T11:18:26;103538.16;;;8.44;83.86
48053;BME280;33824;51.600;5.718;2023-02-10T11:20:59;103527.88;;;8.52;82.70
48053;BME280;33824;51.600;5.718;2023-02-10T11:23:25;103531.09;;;8.57;81.62
48053;BME280;33824;51.600;5.718;2023-02-10T11:26:06;103534.91;;;8.53;81.39
48053;BME280;33824;51.600;5.718;2023-02-10T11:28:41;103530.75;;;8.63;80.51
48053;BME280;33824;51.600;5.718;2023-02-10T11:34:20;103524.94;;;8.43;76.37
48053;BME280;33824;51.600;5.718;2023-02-10T11:36:47;103527.88;;;8.66;79.01
48053;BME280;33824;51.600;5.718;2023-02-10T11:39:30;103525.50;;;8.34;74.94
48053;BME280;33824;51.600;5.718;2023-02-10T11:41:57;103530.16;;;8.58;77.52
48053;BME280;33824;51.600;5.718;2023-02-10T11:44:31;103521.09;;;8.75;77.65
48053;BME280;33824;51.600;5.718;2023-02-10T11:47:11;103514.28;;;8.85;76.50
48053;BME280;33824;51.600;5.718;2023-02-10T11:49:45;103506.78;;;8.78;75.00
48053;BME280;33824;51.600;5.718;2023-02-10T11:52:11;103517.78;;;8.86;74.27
48053;BME280;33824;51.600;5.718;2023-02-10T11:54:38;103502.84;;;8.97;75.37
48053;BME280;33824;51.600;5.718;2023-02-10T12:00:45;103497.81;;;8.93;73.18
48053;BME280;33824;51.600;5.718;2023-02-10T12:06:35;103491.94;;;8.88;70.76
48053;BME280;33824;51.600;5.718;2023-02-10T12:11:44;103487.53;;;9.01;71.30
48053;BME280;33824;51.600;5.718;2023-02-10T12:25:09;103486.09;;;8.95;72.47
48053;BME280;33824;51.600;5.718;2023-02-10T12:27:43;103484.25;;;9.10;72.48
48053;BME280;33824;51.600;5.718;2023-02-10T12:30:24;103485.88;;;9.12;70.04
48053;BME280;33824;51.600;5.718;2023-02-10T12:35:55;103482.72;;;9.20;69.00
48053;BME280;33824;51.600;5.718;2023-02-10T12:46:42;103482.34;;;9.12;69.00
48053;BME280;33824;51.600;5.718;2023-02-10T12:55:24;103475.72;;;9.44;69.60
48053;BME280;33824;51.600;5.718;2023-02-10T12:57:59;103464.81;;;9.61;69.40
48053;BME280;33824;51.600;5.718;2023-02-10T13:00:35;103467.72;;;9.84;70.46
48053;BME280;33824;51.600;5.718;2023-02-10T13:03:11;103466.00;;;9.83;69.21
48053;BME280;33824;51.600;5.718;2023-02-10T13:05:51;103457.88;;;9.97;69.03
48053;BME280;33824;51.600;5.718;2023-02-10T13:08:27;103450.47;;;10.15;69.66
48053;BME280;33824;51.600;5.718;2023-02-10T13:10:59;103448.16;;;10.46;69.35
48053;BME280;33824;51.600;5.718;2023-02-10T13:13:28;103443.19;;;10.42;69.27
48053;BME280;33824;51.600;5.718;2023-02-10T13:16:17;103440.31;;;10.07;68.31
48053;BME280;33824;51.600;5.718;2023-02-10T13:18:54;103433.06;;;9.96;69.74
48053;BME280;33824;51.600;5.718;2023-02-10T13:21:43;103430.38;;;10.09;69.48
48053;BME280;33824;51.600;5.718;2023-02-10T13:24:24;103427.81;;;10.33;70.24
48053;BME280;33824;51.600;5.718;2023-02-10T13:27:04;103410.53;;;10.13;68.58
48053;BME280;33824;51.600;5.718;2023-02-10T13:29:55;103404.81;;;10.06;69.99
48053;BME280;33824;51.600;5.718;2023-02-10T13:32:42;103407.03;;;10.12;69.61
48053;BME280;33824;51.600;5.718;2023-02-10T13:35:20;103418.88;;;10.21;70.91
48053;BME280;33824;51.600;5.718;2023-02-10T13:37:49;103414.41;;;10.22;71.03
48053;BME280;33824;51.600;5.718;2023-02-10T13:40:28;103412.47;;;10.24;69.99
48053;BME280;33824;51.600;5.718;2023-02-10T13:43:00;103414.63;;;10.19;69.38
48053;BME280;33824;51.600;5.718;2023-02-10T13:45:32;103417.06;;;10.09;69.30
48053;BME280;33824;51.600;5.718;2023-02-10T13:48:06;103413.66;;;10.20;68.90
48053;BME280;33824;51.600;5.718;2023-02-10T13:50:47;103412.69;;;10.33;68.93
48053;BME280;33824;51.600;5.718;2023-02-10T13:53:28;103408.75;;;10.26;69.52
48053;BME280;33824;51.600;5.718;2023-02-10T13:56:23;103400.44;;;10.18;68.10
48053;BME280;33824;51.600;5.718;2023-02-10T13:58:50;103406.41;;;10.22;69.50
48053;BME280;33824;51.600;5.718;2023-02-10T14:01:30;103390.16;;;10.12;69.53
48053;BME280;33824;51.600;5.718;2023-02-10T14:03:56;103394.44;;;10.27;69.78
48053;BME280;33824;51.600;5.718;2023-02-10T14:06:40;103390.88;;;10.16;69.36
48053;BME280;33824;51.600;5.718;2023-02-10T14:11:57;103391.38;;;10.08;70.47
48053;BME280;33824;51.600;5.718;2023-02-10T14:14:34;103386.06;;;9.95;68.70
48053;BME280;33824;51.600;5.718;2023-02-10T14:19:39;103375.19;;;9.73;70.23
48053;BME280;33824;51.600;5.718;2023-02-10T14:22:06;103382.44;;;9.71;70.29
48053;BME280;33824;51.600;5.718;2023-02-10T14:24:35;103377.94;;;9.59;70.31
48053;BME280;33824;51.600;5.718;2023-02-10T14:27:03;103373.25;;;9.62;70.91
48053;BME280;33824;51.600;5.718;2023-02-10T14:29:32;103377.31;;;9.55;70.50
48053;BME280;33824;51.600;5.718;2023-02-10T14:32:02;103373.59;;;9.58;70.97